Time;durP1;ratioP1;P1;durP2;ratioP2;P2;SDS_P1;SDS_P2;PMS_P1;PMS_P2;Temp;Humidity;BMP_temperature;BMP_pressure;BME280_temperature;BME280_humidity;BME280_pressure;Samples;Min_cycle;Max_cycle;Signal;HPM_P1;HPM_P2
2023/01/24 00:01:21;;;;;;;25.55;12.90;;;;;;;3.94;74.28;103723.50;5010558;28;20033;-87
2023/01/24 00:03:47;;;;;;;23.73;12.55;;;;;;;3.93;74.27;103729.59;5028744;28;20033;-87
2023/01/24 00:06:12;;;;;;;20.58;11.73;;;;;;;3.88;73.76;103720.69;5009992;28;20029;-88
2023/01/24 00:08:38;;;;;;;25.13;12.93;;;;;;;3.84;73.43;103708.34;5029221;28;20117;-87
2023/01/24 00:11:06;;;;;;;24.83;12.43;;;;;;;3.83;73.31;103715.31;5027116;28;20028;-87
2023/01/24 00:13:31;;;;;;;22.67;12.02;;;;;;;3.92;73.30;103729.53;4992087;28;20041;-88
2023/01/24 00:16:06;;;;;;;22.90;11.82;;;;;;;3.95;73.95;103724.38;5023475;28;20018;-87
2023/01/24 00:18:32;;;;;;;21.48;11.80;;;;;;;3.94;73.37;103735.72;5022673;28;20614;-87
2023/01/24 00:21:24;;;;;;;21.17;11.70;;;;;;;3.97;73.72;103728.84;5029381;28;20092;-88
2023/01/24 00:23:52;;;;;;;22.10;11.88;;;;;;;3.95;73.44;103733.13;5025808;28;20132;-87
2023/01/24 00:26:19;;;;;;;20.63;12.35;;;;;;;3.93;73.53;103732.19;5024263;28;20025;-88
2023/01/24 00:28:45;;;;;;;20.42;11.68;;;;;;;3.81;73.77;103711.72;5007246;28;20086;-88
2023/01/24 00:31:10;;;;;;;21.70;12.25;;;;;;;3.84;73.30;103716.19;5011429;28;20393;-87
2023/01/24 00:33:36;;;;;;;20.45;11.43;;;;;;;3.82;73.48;103704.75;5027921;28;20025;-88
2023/01/24 00:36:04;;;;;;;22.27;12.63;;;;;;;3.87;73.05;103712.75;5010704;28;20606;-87
2023/01/24 00:38:30;;;;;;;24.08;12.07;;;;;;;3.92;73.77;103714.72;5008968;28;20382;-89
2023/01/24 00:40:56;;;;;;;22.40;11.20;;;;;;;3.84;73.95;103696.13;5021610;28;20562;-87
2023/01/24 00:43:21;;;;;;;23.80;12.93;;;;;;;3.81;73.80;103695.13;5007958;28;20037;-87
2023/01/24 00:45:46;;;;;;;21.90;12.23;;;;;;;3.83;73.47;103693.47;5011204;28;20044;-88
2023/01/24 00:48:13;;;;;;;27.13;12.98;;;;;;;3.72;74.25;103706.19;5025601;28;20025;-88
2023/01/24 00:50:38;;;;;;;21.42;11.88;;;;;;;3.65;74.22;103703.31;5026935;28;20033;-88
2023/01/24 00:53:04;;;;;;;21.15;12.52;;;;;;;3.68;74.88;103706.91;5028578;28;20013;-88
2023/01/24 00:55:30;;;;;;;22.25;12.30;;;;;;;3.66;73.96;103694.63;5006091;28;20637;-88
2023/01/24 00:57:55;;;;;;;20.80;11.32;;;;;;;3.60;74.54;103699.66;5025393;28;20338;-87
2023/01/24 01:00:21;;;;;;;23.05;12.45;;;;;;;3.53;74.87;103686.34;5027792;28;20037;-87
2023/01/24 01:02:48;;;;;;;24.58;12.15;;;;;;;3.64;75.16;103706.75;5012881;28;20068;-88
2023/01/24 01:05:13;;;;;;;24.20;12.98;;;;;;;3.68;74.38;103706.91;5030711;28;20029;-87
2023/01/24 01:07:38;;;;;;;22.77;11.98;;;;;;;3.49;74.44;103675.72;5013124;28;20550;-87
2023/01/24 01:10:04;;;;;;;19.83;10.18;;;;;;;3.61;74.09;103696.19;5030936;28;20075;-88
2023/01/24 01:12:29;;;;;;;20.90;11.55;;;;;;;3.55;74.01;103686.41;5030291;28;20056;-87
2023/01/24 01:14:55;;;;;;;23.40;12.82;;;;;;;3.49;74.09;103674.00;5009634;28;20045;-89
2023/01/24 01:17:20;;;;;;;19.17;11.10;;;;;;;3.51;73.91;103676.69;5012251;28;20187;-87
2023/01/24 01:19:45;;;;;;;19.90;11.27;;;;;;;3.51;73.93;103681.91;5014201;28;20029;-89
2023/01/24 01:22:11;;;;;;;19.63;11.68;;;;;;;3.41;74.65;103665.00;5010505;28;20031;-87
2023/01/24 01:24:36;;;;;;;19.52;10.90;;;;;;;3.39;74.34;103668.41;5028147;28;20483;-88
2023/01/24 01:27:02;;;;;;;20.70;10.90;;;;;;;3.43;74.64;103683.38;5012003;28;20048;-88
2023/01/24 01:29:27;;;;;;;21.35;10.68;;;;;;;3.35;75.03;103666.50;5028941;28;20516;-87
2023/01/24 01:31:52;;;;;;;18.08;10.85;;;;;;;3.39;74.84;103671.00;5024391;28;20025;-88
2023/01/24 01:34:18;;;;;;;18.98;10.77;;;;;;;3.41;75.04;103687.66;5009195;28;20409;-87
2023/01/24 01:36:43;;;;;;;20.50;11.00;;;;;;;3.45;75.71;103689.53;5009749;28;20457;-89
2023/01/24 01:39:09;;;;;;;20.30;11.70;;;;;;;3.46;74.80;103696.56;5030379;28;20025;-87
2023/01/24 01:41:34;;;;;;;20.48;10.85;;;;;;;3.49;74.68;103699.25;5028529;28;20025;-87
2023/01/24 01:44:40;;;;;;;19.83;11.38;;;;;;;3.69;74.44;103703.47;5027559;28;20049;-88
2023/01/24 01:47:27;;;;;;;20.38;10.65;;;;;;;3.60;75.19;103697.03;4997680;28;20486;-88
2023/01/24 01:50:07;;;;;;;20.95;11.82;;;;;;;3.56;75.26;103698.66;5030005;28;20104;-88
2023/01/24 01:52:38;;;;;;;20.88;11.27;;;;;;;3.50;75.14;103693.22;5028394;28;20121;-87
2023/01/24 01:55:11;;;;;;;21.25;12.32;;;;;;;3.60;74.79;103705.78;5011553;28;20568;-89
2023/01/24 01:57:37;;;;;;;19.85;11.80;;;;;;;3.41;74.41;103679.81;5028939;28;20393;-88
2023/01/24 02:00:13;;;;;;;21.58;12.32;;;;;;;3.52;74.57;103702.88;5004282;28;20152;-88
2023/01/24 02:02:42;;;;;;;21.60;12.20;;;;;;;3.50;74.79;103691.50;5027210;28;20037;-87
2023/01/24 02:05:11;;;;;;;22.42;11.80;;;;;;;3.46;74.91;103688.72;5027978;28;21166;-88
2023/01/24 02:07:49;;;;;;;21.05;11.57;;;;;;;3.54;75.01;103695.06;5029165;28;20028;-87
2023/01/24 02:10:19;;;;;;;21.40;12.27;;;;;;;3.41;75.05;103677.22;5025944;28;20037;-88
2023/01/24 02:12:47;;;;;;;21.33;11.82;;;;;;;3.44;75.24;103677.28;5027577;28;20033;-88
2023/01/24 02:18:03;;;;;;;22.48;11.25;;;;;;;3.48;75.02;103681.78;5025474;28;20694;-88
2023/01/24 02:20:37;;;;;;;24.30;12.40;;;;;;;3.53;75.42;103688.06;5030073;28;20466;-87
2023/01/24 02:23:38;;;;;;;21.88;11.70;;;;;;;3.49;75.10;103676.59;5027892;28;20511;-88
2023/01/24 02:26:17;;;;;;;22.13;12.00;;;;;;;3.51;75.26;103693.25;5016456;28;20121;-87
2023/01/24 02:28:48;;;;;;;23.60;13.18;;;;;;;3.43;74.78;103680.75;5006568;28;20071;-88
2023/01/24 02:31:13;;;;;;;25.50;13.25;;;;;;;3.42;74.85;103674.63;5020694;28;20026;-88
2023/01/24 02:33:38;;;;;;;24.60;13.40;;;;;;;3.44;74.70;103691.25;5009272;28;20362;-88
2023/01/24 02:36:28;;;;;;;25.17;12.90;;;;;;;3.47;75.04;103687.88;5028896;28;20029;-87
2023/01/24 02:38:59;;;;;;;26.63;14.13;;;;;;;3.30;74.63;103669.84;5007086;28;20030;-88
2023/01/24 02:41:37;;;;;;;25.75;13.60;;;;;;;3.40;74.77;103678.91;5030171;28;20192;-87
2023/01/24 02:44:08;;;;;;;22.95;13.43;;;;;;;3.36;74.84;103676.13;5025911;28;20052;-88
2023/01/24 02:46:38;;;;;;;26.70;13.93;;;;;;;3.40;74.79;103699.81;5028500;28;20080;-88
2023/01/24 02:49:10;;;;;;;22.00;13.68;;;;;;;3.36;74.63;103681.34;5021423;28;20022;-88
2023/01/24 02:54:19;;;;;;;25.45;14.15;;;;;;;3.43;74.96;103686.88;5022291;28;20387;-88
2023/01/24 02:59:29;;;;;;;23.45;13.52;;;;;;;3.43;75.27;103681.63;5027118;28;20044;-87
2023/01/24 03:01:54;;;;;;;25.55;13.95;;;;;;;3.38;75.47;103685.81;5028344;28;20029;-88
2023/01/24 03:04:20;;;;;;;22.52;13.73;;;;;;;3.30;75.36;103668.97;5029911;28;20034;-88
2023/01/24 03:06:45;;;;;;;27.27;14.68;;;;;;;3.40;75.07;103684.13;5010370;28;20025;-88
2023/01/24 03:09:33;;;;;;;25.33;14.05;;;;;;;3.25;75.09;103658.34;5006411;28;20087;-88
2023/01/24 03:36:34;;;;;;;27.35;14.95;;;;;;;3.30;75.72;103674.19;5019591;28;20444;-87
2023/01/24 03:41:43;;;;;;;23.77;13.00;;;;;;;3.21;75.83;103658.19;5027687;28;20072;-87
2023/01/24 03:44:08;;;;;;;24.20;13.52;;;;;;;3.26;75.43;103678.44;5024309;28;20125;-88
2023/01/24 03:46:39;;;;;;;23.00;12.38;;;;;;;3.21;75.20;103673.84;5023005;28;20033;-88
2023/01/24 03:49:05;;;;;;;24.00;12.23;;;;;;;3.22;75.42;103667.81;5024362;28;20111;-87
2023/01/24 03:54:14;;;;;;;23.40;12.18;;;;;;;3.22;75.36;103675.66;5020546;28;20492;-88
2023/01/24 03:56:39;;;;;;;24.98;12.75;;;;;;;3.18;75.84;103665.94;5002456;28;20025;-88
2023/01/24 03:59:04;;;;;;;23.30;12.20;;;;;;;3.21;75.88;103669.53;5025336;28;20040;-89
2023/01/24 04:01:30;;;;;;;23.77;13.90;;;;;;;3.28;76.09;103689.84;5018925;28;20116;-87
2023/01/24 04:03:55;;;;;;;22.65;13.75;;;;;;;3.25;75.78;103680.97;5021686;28;20053;-88
2023/01/24 04:06:20;;;;;;;24.00;12.30;;;;;;;3.12;75.77;103655.22;5024081;28;20033;-87
2023/01/24 04:08:45;;;;;;;24.67;13.23;;;;;;;3.16;75.93;103665.84;5027216;28;20041;-88
2023/01/24 04:11:11;;;;;;;26.50;13.88;;;;;;;3.07;75.84;103644.63;5024006;28;20036;-89
2023/01/24 04:13:36;;;;;;;24.05;13.38;;;;;;;3.24;76.21;103687.94;5024304;28;20041;-88
2023/01/24 04:16:01;;;;;;;26.13;13.82;;;;;;;3.31;76.04;103683.81;5008757;28;20129;-88
2023/01/24 04:18:27;;;;;;;22.27;12.77;;;;;;;3.32;75.44;103669.91;5006842;28;20025;-88
2023/01/24 04:20:52;;;;;;;25.63;13.63;;;;;;;3.25;75.74;103657.44;5004913;28;20125;-88
2023/01/24 04:23:17;;;;;;;25.88;13.73;;;;;;;3.37;75.46;103678.81;5026241;28;20025;-88
2023/01/24 04:25:49;;;;;;;24.63;12.55;;;;;;;3.18;75.76;103668.53;5006110;28;20049;-87
2023/01/24 04:28:14;;;;;;;23.27;13.07;;;;;;;3.17;75.85;103669.34;5024005;28;20140;-88
2023/01/24 04:30:39;;;;;;;23.85;13.65;;;;;;;3.18;76.12;103673.78;5027361;28;20191;-88
2023/01/24 04:33:04;;;;;;;21.98;12.23;;;;;;;3.17;75.50;103679.81;5027879;28;20033;-88
2023/01/24 04:35:30;;;;;;;26.60;13.23;;;;;;;3.24;75.56;103681.81;5025535;28;20047;-88
2023/01/24 04:38:00;;;;;;;23.85;12.13;;;;;;;3.31;75.96;103683.81;5026862;28;20033;-88
2023/01/24 04:40:26;;;;;;;22.75;13.55;;;;;;;3.22;75.89;103665.22;5017016;28;20056;-88
2023/01/24 04:42:51;;;;;;;26.30;13.60;;;;;;;3.26;75.95;103682.75;5024865;28;20029;-88
2023/01/24 04:45:16;;;;;;;22.83;12.52;;;;;;;3.13;75.88;103667.50;5013311;28;20046;-87
2023/01/24 04:47:41;;;;;;;23.02;13.60;;;;;;;3.25;75.73;103680.97;4989943;28;20037;-88
2023/01/24 04:50:07;;;;;;;24.38;13.05;;;;;;;3.24;75.71;103689.66;4993916;28;20403;-88
2023/01/24 04:52:33;;;;;;;21.77;12.57;;;;;;;3.22;75.83;103676.56;4985823;28;20523;-88
2023/01/24 04:54:58;;;;;;;22.52;12.55;;;;;;;3.18;75.86;103679.00;5023658;28;20112;-88
2023/01/24 04:57:23;;;;;;;23.67;12.85;;;;;;;3.27;76.19;103684.56;5001174;28;20018;-88
2023/01/24 04:59:49;;;;;;;25.23;13.40;;;;;;;3.20;75.76;103678.19;5008547;28;20120;-88
2023/01/24 05:02:14;;;;;;;21.92;11.88;;;;;;;3.22;76.01;103678.28;4980465;28;20188;-89
2023/01/24 05:04:39;;;;;;;24.00;12.57;;;;;;;3.16;75.79;103678.91;4982482;28;20038;-88
2023/01/24 05:07:05;;;;;;;24.05;13.32;;;;;;;3.16;76.00;103675.44;5008031;28;20100;-87
2023/01/24 05:09:30;;;;;;;25.98;13.15;;;;;;;3.18;75.83;103668.53;5005530;28;20513;-88
2023/01/24 05:11:55;;;;;;;27.83;14.35;;;;;;;3.24;76.11;103689.66;5002662;28;20113;-88
2023/01/24 05:14:21;;;;;;;21.00;12.93;;;;;;;3.12;75.50;103677.03;5003670;28;20033;-88
2023/01/24 05:16:46;;;;;;;24.05;12.30;;;;;;;3.19;76.14;103684.28;4986414;28;20022;-87
2023/01/24 05:19:11;;;;;;;22.67;13.48;;;;;;;3.06;75.52;103667.25;5007597;28;20038;-88
2023/01/24 05:21:37;;;;;;;28.48;15.32;;;;;;;3.00;75.37;103672.25;5007686;28;20030;-89
2023/01/24 05:24:03;;;;;;;22.38;12.63;;;;;;;3.20;75.66;103701.72;4989594;28;20030;-88
2023/01/24 05:26:28;;;;;;;26.05;13.48;;;;;;;3.12;75.80;103681.38;5007625;28;20513;-88
2023/01/24 05:28:54;;;;;;;22.92;12.38;;;;;;;3.23;76.34;103700.97;5005966;28;20034;-88
2023/01/24 05:31:20;;;;;;;23.08;13.57;;;;;;;3.16;76.34;103691.09;4987959;28;20030;-88
2023/01/24 05:33:46;;;;;;;21.08;12.13;;;;;;;3.20;76.37;103699.13;5006592;28;20100;-88
2023/01/24 05:36:17;;;;;;;24.85;13.70;;;;;;;3.20;75.58;103693.00;4989373;28;20018;-88
2023/01/24 05:38:43;;;;;;;22.00;12.90;;;;;;;3.24;75.74;103706.25;5009184;28;20038;-88
2023/01/24 05:41:10;;;;;;;25.30;12.20;;;;;;;3.21;75.95;103694.78;4988445;28;20469;-88
2023/01/24 05:43:36;;;;;;;21.33;12.18;;;;;;;3.22;75.62;103704.41;5011529;28;20042;-89
2023/01/24 05:46:10;;;;;;;21.45;11.85;;;;;;;3.20;75.75;103708.69;5026421;28;20505;-88
2023/01/24 05:48:36;;;;;;;22.83;12.27;;;;;;;3.07;75.36;103692.53;4997012;28;20496;-89
2023/01/24 05:51:05;;;;;;;23.90;12.35;;;;;;;3.04;75.93;103691.56;5011172;28;20029;-88
2023/01/24 05:53:33;;;;;;;21.05;12.38;;;;;;;3.13;75.81;103718.03;5028925;28;20064;-88
2023/01/24 05:56:01;;;;;;;19.85;11.63;;;;;;;3.06;76.00;103706.44;5025077;28;20372;-88
2023/01/24 05:58:28;;;;;;;21.67;12.32;;;;;;;3.00;76.00;103703.63;5027378;28;20033;-88
2023/01/24 06:00:53;;;;;;;23.48;13.15;;;;;;;3.10;75.97;103717.03;5011791;28;20025;-88
2023/01/24 06:03:19;;;;;;;22.40;12.30;;;;;;;3.09;76.24;103717.88;5031910;28;20504;-88
2023/01/24 06:05:50;;;;;;;20.65;11.70;;;;;;;3.13;76.36;103731.13;5028824;28;20676;-88
2023/01/24 06:08:16;;;;;;;23.83;13.45;;;;;;;3.03;76.42;103718.50;5028752;28;20025;-88
2023/01/24 06:10:42;;;;;;;23.98;13.35;;;;;;;3.03;76.24;103711.59;5029134;28;20060;-88
2023/01/24 06:13:07;;;;;;;23.90;13.38;;;;;;;3.07;76.50;103729.13;5025126;28;20029;-89
2023/01/24 06:15:33;;;;;;;24.48;12.80;;;;;;;3.12;76.62;103731.03;5027839;28;20025;-88
2023/01/24 06:17:58;;;;;;;23.23;12.70;;;;;;;3.11;76.84;103735.38;5027336;28;20485;-90
2023/01/24 06:20:24;;;;;;;24.92;14.20;;;;;;;3.03;76.66;103723.75;5031223;28;20033;-88
2023/01/24 06:22:55;;;;;;;23.73;13.20;;;;;;;2.99;76.73;103714.03;5012811;28;20040;-88
2023/01/24 06:25:24;;;;;;;24.10;12.93;;;;;;;2.99;76.42;103722.75;5012104;28;20025;-88
2023/01/24 06:27:50;;;;;;;22.90;12.10;;;;;;;2.98;76.24;103730.53;5009556;28;20026;-88
2023/01/24 06:30:17;;;;;;;20.33;11.07;;;;;;;2.94;76.36;103721.69;5027588;28;20029;-88
2023/01/24 06:33:02;;;;;;;25.88;12.80;;;;;;;2.99;76.32;103741.06;5030282;28;20365;-88
2023/01/24 06:35:42;;;;;;;24.55;13.48;;;;;;;3.01;76.90;103741.09;5029187;28;20031;-88
2023/01/24 06:38:21;;;;;;;22.92;12.90;;;;;;;3.00;76.66;103742.81;5026793;28;20037;-88
2023/01/24 06:40:52;;;;;;;23.48;12.93;;;;;;;2.93;76.91;103734.69;5010191;28;20099;-89
2023/01/24 06:43:17;;;;;;;24.60;13.40;;;;;;;2.90;77.00;103738.09;5026073;28;20477;-88
2023/01/24 06:45:43;;;;;;;25.75;13.48;;;;;;;2.96;76.87;103740.03;5028167;28;20084;-89
2023/01/24 06:48:08;;;;;;;27.30;13.77;;;;;;;2.92;76.79;103739.03;5011795;28;20044;-87
2023/01/24 06:50:33;;;;;;;24.95;13.82;;;;;;;2.96;76.86;103756.59;5028440;28;20539;-88
2023/01/24 06:52:59;;;;;;;23.98;12.88;;;;;;;2.99;77.04;103748.88;5029043;28;20036;-88
2023/01/24 06:55:24;;;;;;;28.48;14.32;;;;;;;2.90;77.54;103739.81;5009426;28;20021;-89
2023/01/24 06:58:01;;;;;;;27.75;13.75;;;;;;;2.97;77.34;103747.91;5004353;28;20049;-88
2023/01/24 07:00:27;;;;;;;25.20;12.85;;;;;;;2.97;76.61;103752.25;5028231;28;20030;-87
2023/01/24 07:03:06;;;;;;;21.15;12.65;;;;;;;2.93;76.83;103759.09;5029693;28;20397;-88
2023/01/24 07:05:32;;;;;;;22.75;12.52;;;;;;;2.84;76.50;103734.34;5033412;28;20044;-87
2023/01/24 07:07:58;;;;;;;24.77;13.48;;;;;;;2.90;76.66;103748.53;5028174;28;20034;-87
2023/01/24 07:10:24;;;;;;;22.02;12.90;;;;;;;2.92;76.67;103759.94;5006514;28;20032;-88
2023/01/24 07:12:49;;;;;;;22.83;12.68;;;;;;;2.88;76.41;103768.47;5023669;28;20104;-88
2023/01/24 07:15:15;;;;;;;22.92;12.75;;;;;;;2.79;76.41;103742.88;5031277;28;20038;-88
2023/01/24 07:17:41;;;;;;;20.92;12.18;;;;;;;2.80;76.41;103751.63;5025793;28;20029;-88
2023/01/24 07:20:07;;;;;;;24.38;14.23;;;;;;;2.70;76.25;103746.84;5027002;28;20033;-88
2023/01/24 07:22:32;;;;;;;24.65;12.95;;;;;;;2.89;76.67;103778.13;5030513;28;20088;-88
2023/01/24 07:24:58;;;;;;;25.25;13.55;;;;;;;2.80;76.57;103768.19;5011514;28;20029;-88
2023/01/24 07:27:24;;;;;;;25.27;13.55;;;;;;;2.80;76.19;103783.88;5010872;28;20557;-88
2023/01/24 07:29:49;;;;;;;25.10;13.43;;;;;;;2.77;76.42;103775.00;5009225;28;20042;-89
2023/01/24 07:32:14;;;;;;;23.02;13.45;;;;;;;2.75;75.85;103776.66;5018649;28;20033;-88
2023/01/24 07:34:39;;;;;;;24.50;12.82;;;;;;;2.78;76.37;103784.63;5028779;28;20021;-88
2023/01/24 07:37:07;;;;;;;25.75;13.65;;;;;;;2.74;76.53;103780.09;5030259;28;20021;-88
2023/01/24 07:39:32;;;;;;;23.20;12.95;;;;;;;2.84;76.42;103791.81;5030410;28;20026;-88
2023/01/24 07:41:58;;;;;;;23.00;13.27;;;;;;;2.80;76.28;103790.81;5027316;28;20080;-88
2023/01/24 07:44:23;;;;;;;26.30;12.57;;;;;;;2.78;76.39;103782.00;5029445;28;20468;-88
2023/01/24 07:46:48;;;;;;;25.33;13.23;;;;;;;2.77;76.46;103785.47;5029558;28;20032;-88
2023/01/24 07:49:14;;;;;;;24.67;13.15;;;;;;;2.78;76.52;103787.25;5008911;28;20034;-88
2023/01/24 07:51:39;;;;;;;23.17;13.10;;;;;;;2.78;76.84;103782.91;5023226;28;20559;-89
2023/01/24 07:54:05;;;;;;;26.10;14.13;;;;;;;2.79;76.77;103789.91;5029509;28;20510;-88
2023/01/24 07:56:30;;;;;;;26.50;13.13;;;;;;;2.79;76.68;103791.63;5009216;28;20084;-88
2023/01/24 07:58:57;;;;;;;25.65;14.07;;;;;;;2.74;77.09;103790.56;5024301;28;20113;-88
2023/01/24 08:01:23;;;;;;;28.38;14.70;;;;;;;2.72;76.69;103794.84;5027485;28;20041;-88
2023/01/24 08:03:49;;;;;;;24.60;14.30;;;;;;;2.76;76.56;103802.88;5030024;28;20481;-88
2023/01/24 08:06:14;;;;;;;26.17;13.05;;;;;;;2.72;76.56;103800.06;5030546;28;20071;-87
2023/01/24 08:08:39;;;;;;;25.17;14.43;;;;;;;2.75;76.63;103808.94;5009541;28;20037;-88
2023/01/24 08:11:05;;;;;;;25.85;13.73;;;;;;;2.71;76.38;103800.91;5027193;28;20152;-88
2023/01/24 08:13:30;;;;;;;26.55;13.75;;;;;;;2.69;76.77;103797.31;5028456;28;20485;-88
2023/01/24 08:15:55;;;;;;;29.73;13.60;;;;;;;2.69;76.79;103793.00;5030330;28;20026;-88
2023/01/24 08:18:21;;;;;;;25.92;13.95;;;;;;;2.69;76.12;103795.59;5011017;28;20120;-88
2023/01/24 08:20:46;;;;;;;26.17;13.32;;;;;;;2.67;76.61;103794.66;5010588;28;20032;-88
2023/01/24 08:23:11;;;;;;;24.73;12.57;;;;;;;2.73;76.39;103801.84;5029008;28;20032;-88
2023/01/24 08:25:37;;;;;;;29.10;13.50;;;;;;;2.75;76.27;103808.00;5029637;28;20026;-88
2023/01/24 08:28:02;;;;;;;27.83;14.68;;;;;;;2.78;76.62;103802.91;5028019;28;20091;-88
2023/01/24 08:30:27;;;;;;;24.15;13.45;;;;;;;2.75;75.96;103805.41;5027603;28;20021;-88
2023/01/24 08:33:04;;;;;;;23.58;13.38;;;;;;;2.87;76.50;103816.34;5029961;28;20029;-88
2023/01/24 08:35:31;;;;;;;25.75;13.05;;;;;;;2.88;76.66;103823.34;5007767;28;20021;-88
2023/01/24 08:37:56;;;;;;;27.35;13.55;;;;;;;2.89;76.22;103819.94;5011893;28;20028;-88
2023/01/24 08:40:22;;;;;;;23.73;12.50;;;;;;;2.90;76.63;103821.69;5012013;28;20026;-88
2023/01/24 08:42:47;;;;;;;23.17;12.55;;;;;;;2.85;76.22;103823.25;5029131;28;20437;-88
2023/01/24 08:45:12;;;;;;;23.10;12.73;;;;;;;2.90;76.50;103819.09;5009912;28;20049;-88
2023/01/24 08:47:37;;;;;;;24.33;13.02;;;;;;;2.90;76.79;103819.09;5029812;28;20685;-88
2023/01/24 08:50:03;;;;;;;26.13;13.35;;;;;;;2.86;76.15;103813.69;5007880;28;20038;-88
2023/01/24 08:52:28;;;;;;;27.95;14.13;;;;;;;2.83;76.43;103806.59;5007273;28;20623;-88
2023/01/24 08:54:54;;;;;;;25.73;13.48;;;;;;;2.94;76.66;103821.00;5028657;28;20033;-88
2023/01/24 08:57:19;;;;;;;28.15;13.48;;;;;;;3.03;76.44;103842.25;5028333;28;20106;-88
2023/01/24 08:59:44;;;;;;;26.25;14.82;;;;;;;2.95;75.78;103830.59;5006219;28;20041;-88
2023/01/24 09:02:14;;;;;;;25.10;13.38;;;;;;;3.03;76.33;103843.97;5020510;28;20057;-88
2023/01/24 09:04:39;;;;;;;27.77;13.95;;;;;;;3.05;76.75;103845.81;5012498;28;20586;-87
2023/01/24 09:07:05;;;;;;;26.70;13.52;;;;;;;3.06;76.60;103842.38;5029907;28;20026;-87
2023/01/24 09:09:30;;;;;;;26.23;14.18;;;;;;;3.02;76.29;103844.78;5031387;28;20033;-87
2023/01/24 09:11:56;;;;;;;27.58;14.38;;;;;;;3.02;76.24;103839.56;5014946;28;20021;-87
2023/01/24 09:14:22;;;;;;;26.27;12.77;;;;;;;3.07;76.03;103844.13;5011227;28;20113;-87
2023/01/24 09:16:47;;;;;;;29.10;14.18;;;;;;;3.06;76.05;103833.63;5028168;28;20113;-88
2023/01/24 09:19:12;;;;;;;26.50;13.43;;;;;;;3.12;75.60;103841.69;5029049;28;20037;-88
2023/01/24 09:21:38;;;;;;;27.80;12.45;;;;;;;3.12;75.70;103846.03;5027162;28;20057;-88
2023/01/24 09:24:03;;;;;;;25.92;13.45;;;;;;;3.05;75.36;103845.81;5015319;28;20025;-88
2023/01/24 09:26:29;;;;;;;22.17;11.77;;;;;;;3.02;75.06;103834.34;5015261;28;20033;-88
2023/01/24 09:28:55;;;;;;;25.67;13.85;;;;;;;2.83;74.63;103824.00;5031704;28;20033;-88
2023/01/24 09:31:20;;;;;;;23.67;12.40;;;;;;;2.91;74.69;103831.31;5034223;28;20507;-88
2023/01/24 09:33:46;;;;;;;24.02;12.13;;;;;;;2.82;74.94;103825.72;5010302;28;20068;-88
2023/01/24 09:36:11;;;;;;;25.75;13.23;;;;;;;3.03;74.87;103857.94;5015639;28;20033;-88
2023/01/24 09:38:36;;;;;;;27.98;14.60;;;;;;;2.92;74.85;103843.53;5033014;28;20041;-88
2023/01/24 09:41:07;;;;;;;24.00;12.25;;;;;;;3.02;74.87;103866.59;5029493;28;20033;-88
2023/01/24 09:43:48;;;;;;;23.80;12.48;;;;;;;2.99;75.11;103856.03;5028676;28;20050;-88
2023/01/24 09:46:23;;;;;;;22.20;11.63;;;;;;;2.93;74.34;103834.88;5009402;28;20054;-88
2023/01/24 09:48:54;;;;;;;22.05;11.55;;;;;;;2.97;73.92;103842.00;5015970;28;20528;-87
2023/01/24 09:51:24;;;;;;;23.85;11.68;;;;;;;3.04;74.21;103845.78;5015720;28;20033;-88
2023/01/24 09:53:53;;;;;;;24.00;12.25;;;;;;;3.12;74.25;103857.38;5033396;28;20539;-88
2023/01/24 09:56:30;;;;;;;23.38;12.07;;;;;;;3.12;74.04;103849.53;5033128;28;20053;-88
2023/01/24 09:59:33;;;;;;;22.33;12.27;;;;;;;3.22;73.91;103867.41;5030162;28;20056;-88
2023/01/24 10:01:58;;;;;;;;;;;;;;;3.34;74.30;103869.56;5038562;28;20099;-87
2023/01/24 10:04:34;;;;;;;22.65;11.70;;;;;;;3.28;74.40;103878.09;5016852;28;20014;-88
2023/01/24 10:07:05;;;;;;;21.05;11.40;;;;;;;3.26;73.53;103874.53;5015428;28;20521;-87
2023/01/24 10:10:02;;;;;;;19.55;10.07;;;;;;;3.31;74.27;103872.06;5013763;28;20111;-87
2023/01/24 10:12:39;;;;;;;21.08;11.30;;;;;;;3.33;74.11;103870.41;5029893;28;20029;-87
2023/01/24 10:15:26;;;;;;;22.48;11.40;;;;;;;3.35;73.65;103866.13;5013660;28;20025;-88
2023/01/24 10:18:27;;;;;;;22.45;11.65;;;;;;;3.26;74.06;103860.53;5017117;28;20041;-88
2023/01/24 10:21:20;;;;;;;20.27;10.82;;;;;;;3.31;73.14;103870.38;5034132;28;20031;-88
2023/01/24 10:23:54;;;;;;;20.05;10.70;;;;;;;3.23;73.34;103848.25;5017285;28;20056;-88
2023/01/24 10:26:23;;;;;;;19.45;10.75;;;;;;;3.32;73.43;103872.16;5015414;28;20025;-88
2023/01/24 10:28:54;;;;;;;21.83;12.05;;;;;;;3.33;73.59;103873.91;5028599;28;20535;-88
2023/01/24 10:31:27;;;;;;;22.25;11.88;;;;;;;3.29;73.26;103861.56;5017880;28;20036;-86
2023/01/24 10:34:31;;;;;;;20.15;10.88;;;;;;;3.48;73.39;103871.00;5031619;28;20091;-88
2023/01/24 10:37:14;;;;;;;19.27;10.95;;;;;;;3.43;72.76;103854.25;5030436;28;20021;-89
2023/01/24 10:39:39;;;;;;;19.13;10.38;;;;;;;3.51;72.75;103870.22;5026666;28;20060;-88
2023/01/24 10:42:26;;;;;;;19.85;10.25;;;;;;;3.46;72.82;103849.13;5031421;28;20104;-89
2023/01/24 10:44:54;;;;;;;17.02;9.82;;;;;;;3.51;72.21;103875.47;5033423;28;20551;-87
2023/01/24 10:47:38;;;;;;;18.52;10.43;;;;;;;3.51;72.44;103865.88;5034311;28;20473;-88
2023/01/24 10:50:09;;;;;;;19.83;10.65;;;;;;;3.59;72.40;103863.56;5034212;28;20099;-87
2023/01/24 10:52:35;;;;;;;19.25;10.05;;;;;;;3.59;72.60;103853.09;5032479;28;20026;-88
2023/01/24 10:55:01;;;;;;;16.40;9.77;;;;;;;3.67;72.55;103864.72;5033672;28;20091;-88
2023/01/24 10:57:40;;;;;;;17.58;9.75;;;;;;;3.60;72.70;103849.66;5029915;28;20040;-87
2023/01/24 11:00:33;;;;;;;18.92;10.57;;;;;;;3.73;72.76;103872.81;5032333;28;20082;-88
2023/01/24 11:03:17;;;;;;;19.75;11.38;;;;;;;3.79;72.47;103861.69;5020423;28;20041;-87
2023/01/24 11:05:47;;;;;;;19.00;11.05;;;;;;;3.77;72.11;103860.72;5031566;28;20037;-88
2023/01/24 11:08:24;;;;;;;19.13;10.20;;;;;;;3.71;72.13;103840.47;5006671;28;20029;-88
2023/01/24 11:10:55;;;;;;;16.88;9.70;;;;;;;3.62;72.38;103826.16;5018246;28;20120;-88
2023/01/24 11:13:32;;;;;;;18.42;10.07;;;;;;;3.76;71.46;103849.38;5028933;28;20021;-88
2023/01/24 11:16:19;;;;;;;18.17;9.70;;;;;;;3.77;71.71;103851.13;5029944;28;20036;-88
2023/01/24 11:18:56;;;;;;;18.48;10.30;;;;;;;3.82;72.24;103852.22;5023110;28;20033;-88
2023/01/24 11:21:22;;;;;;;18.88;9.60;;;;;;;3.80;72.00;103839.91;5029717;28;20021;-88
2023/01/24 11:24:07;;;;;;;17.90;9.77;;;;;;;3.85;72.38;103840.97;5006275;28;20030;-88
2023/01/24 11:26:37;;;;;;;17.65;10.00;;;;;;;3.81;71.83;103826.88;5027974;28;20033;-88
2023/01/24 11:29:05;;;;;;;17.05;9.45;;;;;;;3.95;71.42;103847.41;5026566;28;20041;-88
2023/01/24 11:31:46;;;;;;;18.58;9.93;;;;;;;3.84;71.96;103819.13;5027140;28;20025;-89
2023/01/24 11:34:33;;;;;;;19.23;9.98;;;;;;;3.90;71.63;103836.78;5028401;28;20044;-87
2023/01/24 11:37:12;;;;;;;20.60;9.90;;;;;;;3.90;72.06;103821.06;5028029;28;20018;-87
2023/01/24 11:39:52;;;;;;;19.90;10.18;;;;;;;4.00;71.58;103828.41;5008508;28;20037;-88
2023/01/24 11:42:36;;;;;;;20.95;11.40;;;;;;;3.87;71.63;103807.91;5031742;28;20815;-88
2023/01/24 11:45:26;;;;;;;20.10;11.73;;;;;;;3.88;71.69;103828.00;5004706;28;20061;-88
2023/01/24 11:48:08;;;;;;;20.17;11.18;;;;;;;3.80;72.48;103814.63;5024227;28;20029;-88
2023/01/24 11:50:56;;;;;;;23.70;11.53;;;;;;;3.78;71.77;103811.06;5023645;28;20025;-89
2023/01/24 11:53:39;;;;;;;20.55;11.38;;;;;;;3.86;72.57;103824.41;5023624;28;20040;-88
2023/01/24 11:56:27;;;;;;;21.35;10.93;;;;;;;3.86;72.63;103821.78;5027776;28;20021;-88
2023/01/24 11:59:19;;;;;;;22.95;12.05;;;;;;;3.85;72.04;103820.03;5024320;28;20044;-88
2023/01/24 12:02:09;;;;;;;18.45;10.27;;;;;;;3.73;72.17;103794.31;4992418;28;20401;-87
2023/01/24 12:05:02;;;;;;;18.42;10.10;;;;;;;3.82;72.05;103804.19;5028727;28;20064;-88
2023/01/24 12:07:50;;;;;;;19.85;10.88;;;;;;;3.85;71.79;103806.94;4982863;28;20033;-88